Darrington, WA (98241)

06:20 AM PDT die 27o August, anno 2016 (GMT -0700)
Glacier View Internet | | Change Station

Elev 549 ft 48.25 °N, 121.61 °W | Updated 5 minutes ago

Clear
Serena
55.1 °F
Feels Like 55.1 °F
N
0.0
Ventus Variabilis Ventus from Inter Aquilonem et Eurum
Gusts 1.0 mph

Hodie
High -- | Low -- °F
--% Chance of Precip.
Yesterday
High -- | Low -- °F
Precip. -- in
Pressio 29.80 in
Visibilitas 10.0 milia passuum
Clouds Serena
Frigus in quo Ros apparet 52 °F
Umor 88%
Rainfall 0.00 in
Snow Depth Not available.
6:17 AM 7:56 PM
Waning Crescent, 24% visible
METAR KAWO 271315Z 00000KT 10SM CLR 13/07 A2980 RMK AO1
Pressio 29.80 in
Visibilitas 10.0 milia passuum
Clouds Serena
Frigus in quo Ros apparet 52 °F
Umor 88%
Rainfall 0.00 in
Snow Depth Not available.
6:17 AM 7:56 PM
Waning Crescent, 24% visible
METAR KAWO 271315Z 00000KT 10SM CLR 13/07 A2980 RMK AO1

10-Day Weather Forecast

Almanac

Astronomy

Aug. 27, 2016 Rise Set
Actual Time
Civil Twilight
Nautical Twilight
Astronomical Twilight
Moon
Length Of Visible Light
Length of Day
Tomorrow will be .
, % of the Moon is Illuminated

Today's Extremes

State Highs State Lows

Community

WunderPhotos

Upload Photos

1,935,337 photos uploaded!

WunderBlog® & News

Nearby

Air Quality

  Air Quality AQ Index Pollutant
Not available.

Snow Depth

Station Depth Elevation

Earthquake Activity

City Distance Mag. Time & Date
Minimum magnitude displayed is 2.5.

Coastal Water Temperatures

Locus Calor

Stations

Nearby Weather Stations

Station Location Temp Frigus Venti Frigus in quo Ros apparet Umor Ventus Precip. Elev Renovata Type
                   

Watches & Warnings

There are currently no watches in effect.